createdAt,value
2019-06-10T00:02:24.411Z,97422.59
2019-06-10T00:04:51.520Z,97426.14
2019-06-10T00:07:18.445Z,97421.80
2019-06-10T00:09:45.311Z,97427.47
2019-06-10T00:12:12.883Z,97421.54
2019-06-10T00:14:41.902Z,97420.38
2019-06-10T00:17:10.899Z,97419.84
2019-06-10T00:19:37.569Z,97425.59
2019-06-10T00:22:06.572Z,97422.04
2019-06-10T00:24:33.352Z,97425.37
2019-06-10T00:27:02.416Z,97427.09
2019-06-10T00:29:31.120Z,97422.92
2019-06-10T00:31:58.501Z,97423.90
2019-06-10T00:34:25.715Z,97419.13
2019-06-10T00:36:52.604Z,97417.76
2019-06-10T00:39:21.931Z,97418.92
2019-06-10T00:41:48.296Z,97417.55
2019-06-10T00:44:15.182Z,97415.00
2019-06-10T00:46:42.179Z,97403.99
2019-06-10T00:49:12.093Z,97402.61
2019-06-10T00:51:37.807Z,97404.84
2019-06-10T00:54:06.544Z,97394.80
2019-06-10T00:56:33.530Z,97394.22
2019-06-10T00:59:02.303Z,97385.22
2019-06-10T01:01:31.250Z,97388.92
2019-06-10T01:03:57.783Z,97384.00
2019-06-10T01:06:24.914Z,97379.27
2019-06-10T01:08:51.893Z,97377.84
2019-06-10T01:11:23.690Z,97371.91
2019-06-10T01:13:47.251Z,97368.58
2019-06-10T01:16:15.501Z,97368.36
2019-06-10T01:18:42.560Z,97366.55
2019-06-10T01:21:12.129Z,97359.03
2019-06-10T01:23:38.047Z,97355.09
2019-06-10T01:26:05.728Z,97354.45
2019-06-10T01:28:32.700Z,97354.61
2019-06-10T01:31:01.055Z,97346.33
2019-06-10T01:33:27.931Z,97352.27
2019-06-10T01:35:54.720Z,97348.73
2019-06-10T01:38:21.560Z,97346.78
2019-06-10T01:40:50.764Z,97348.37
2019-06-10T01:43:18.389Z,97341.91
2019-06-10T01:45:45.387Z,97340.75
2019-06-10T01:48:14.910Z,97340.95
2019-06-10T01:50:41.162Z,97338.20
2019-06-10T01:53:09.386Z,97333.66
2019-06-10T01:55:36.930Z,97326.77
2019-06-10T01:58:03.934Z,97329.95
2019-06-10T02:00:35.516Z,97328.57
2019-06-10T02:03:03.637Z,97326.77
2019-06-10T02:05:31.238Z,97321.64
2019-06-10T02:08:00.283Z,97320.42
2019-06-10T02:10:26.932Z,97322.57
2019-06-10T02:12:53.836Z,97319.40
2019-06-10T02:15:22.475Z,97318.77
2019-06-10T02:17:50.986Z,97315.91
2019-06-10T02:20:19.746Z,97316.20
2019-06-10T02:22:47.107Z,97317.87
2019-06-10T02:25:15.180Z,97322.70
2019-06-10T02:27:42.110Z,97318.72
2019-06-10T02:30:19.060Z,97319.45
2019-06-10T02:32:38.788Z,97316.67
2019-06-10T02:35:14.196Z,97317.84
2019-06-10T02:37:38.150Z,97313.71
2019-06-10T02:40:06.042Z,97308.42
2019-06-10T02:42:36.130Z,97308.42
2019-06-10T02:45:06.904Z,97307.27
2019-06-10T02:47:38.023Z,97304.30
2019-06-10T02:50:08.601Z,97310.53
2019-06-10T02:52:38.541Z,97305.44
2019-06-10T02:55:05.227Z,97307.57
2019-06-10T02:57:39.400Z,97302.87
2019-06-10T03:00:06.393Z,97295.63
2019-06-10T03:02:35.918Z,97296.27
2019-06-10T03:04:58.817Z,97303.34
2019-06-10T03:07:28.738Z,97301.77
2019-06-10T03:09:54.437Z,97297.84
2019-06-10T03:12:23.965Z,97297.84
2019-06-10T03:14:49.889Z,97296.50
2019-06-10T03:17:19.815Z,97299.09
2019-06-10T03:19:50.513Z,97298.80
2019-06-10T03:22:16.003Z,97296.84
2019-06-10T03:24:42.947Z,97297.50
2019-06-10T03:27:10.041Z,97299.30
2019-06-10T03:29:36.935Z,97304.28
2019-06-10T03:32:05.106Z,97301.57
2019-06-10T03:34:40.548Z,97304.89
2019-06-10T03:37:02.470Z,97293.40
2019-06-10T03:39:29.468Z,97291.70
2019-06-10T03:41:56.294Z,97291.60
2019-06-10T03:44:23.949Z,97294.61
2019-06-10T03:46:52.335Z,97291.89
2019-06-10T03:49:19.610Z,97293.87
2019-06-10T03:51:46.515Z,97297.00
2019-06-10T03:54:13.483Z,97295.95
2019-06-10T03:56:42.744Z,97290.53
2019-06-10T03:59:09.075Z,97280.78
2019-06-10T04:01:35.987Z,97275.20
2019-06-10T04:04:03.032Z,97286.22
2019-06-10T04:06:29.769Z,97285.19
2019-06-10T04:08:56.557Z,97284.55
2019-06-10T04:11:25.605Z,97293.95
2019-06-10T04:13:53.476Z,97282.87
2019-06-10T04:16:22.615Z,97283.66
2019-06-10T04:18:49.175Z,97284.84
2019-06-10T04:21:15.983Z,97282.22
2019-06-10T04:23:42.915Z,97284.34
2019-06-10T04:26:09.639Z,97277.31
2019-06-10T04:28:36.391Z,97273.48
2019-06-10T04:31:03.336Z,97266.50
2019-06-10T04:33:32.651Z,97263.33
2019-06-10T04:35:58.810Z,97259.75
2019-06-10T04:38:26.343Z,97264.20
2019-06-10T04:40:54.306Z,97261.46
2019-06-10T04:43:23.418Z,97262.24
2019-06-10T04:45:50.003Z,97261.13
2019-06-10T04:48:16.860Z,97259.20
2019-06-10T04:50:46.327Z,97263.97
2019-06-10T04:53:12.924Z,97257.30
2019-06-10T04:55:39.804Z,97258.59
2019-06-10T04:58:06.640Z,97256.14
2019-06-10T05:00:33.837Z,97252.29
2019-06-10T05:03:02.752Z,97253.23
2019-06-10T05:05:30.072Z,97253.16
2019-06-10T05:07:58.061Z,97246.55
2019-06-10T05:10:26.704Z,97243.23
2019-06-10T05:12:54.213Z,97240.42
2019-06-10T05:15:22.015Z,97235.69
2019-06-10T05:17:52.516Z,97242.72
2019-06-10T05:20:19.745Z,97243.81
2019-06-10T05:22:46.693Z,97244.63
2019-06-10T05:25:13.792Z,97248.19
2019-06-10T05:27:42.779Z,97240.51
2019-06-10T05:30:12.271Z,97240.16
2019-06-10T05:32:39.184Z,97235.30
2019-06-10T05:35:06.103Z,97242.14
2019-06-10T05:37:33.939Z,97237.00
2019-06-10T05:40:02.197Z,97238.09
2019-06-10T05:42:29.660Z,97239.60
2019-06-10T05:44:57.960Z,97237.61
2019-06-10T05:47:26.651Z,97235.05
2019-06-10T05:49:53.568Z,97232.56
2019-06-10T05:52:22.975Z,97223.91
2019-06-10T05:54:49.219Z,97224.27
2019-06-10T05:57:16.108Z,97229.63
2019-06-10T05:59:43.308Z,97225.02
2019-06-10T06:02:12.753Z,97216.69
2019-06-10T06:04:39.344Z,97219.11
2019-06-10T06:07:06.175Z,97218.94
2019-06-10T06:09:35.113Z,97213.51
2019-06-10T06:12:02.521Z,97203.37
2019-06-10T06:14:29.590Z,97197.58
2019-06-10T06:16:56.438Z,97197.05
2019-06-10T06:19:23.339Z,97193.12
2019-06-10T06:21:52.849Z,97189.76
2019-06-10T06:24:19.151Z,97190.78
2019-06-10T06:26:45.987Z,97188.06
2019-06-10T06:29:13.144Z,97183.90
2019-06-10T06:31:42.704Z,97185.05
2019-06-10T06:34:08.938Z,97176.84
2019-06-10T06:36:37.045Z,97171.05
2019-06-10T06:39:06.188Z,97171.91
2019-06-10T06:41:34.542Z,97170.05
2019-06-10T06:44:02.442Z,97173.52
2019-06-10T06:46:32.076Z,97169.49
2019-06-10T06:48:58.247Z,97176.14
2019-06-10T06:51:38.018Z,97167.41
2019-06-10T06:53:56.238Z,97157.77
2019-06-10T06:56:23.260Z,97157.05
2019-06-10T06:58:52.432Z,97157.09
2019-06-10T07:01:22.511Z,97159.28
2019-06-10T07:03:47.947Z,97158.19
2019-06-10T07:06:15.008Z,97154.63
2019-06-10T07:08:59.935Z,97154.86
2019-06-10T07:11:13.406Z,97152.74
2019-06-10T07:13:45.595Z,97144.80
2019-06-10T07:16:13.165Z,97144.60
2019-06-10T07:18:45.543Z,97134.73
2019-06-10T07:21:09.084Z,97137.81
2019-06-10T07:23:38.022Z,97134.77
2019-06-10T07:26:04.724Z,97127.27
2019-06-10T07:28:34.000Z,97125.59
2019-06-10T07:31:00.191Z,97120.21
2019-06-10T07:33:27.013Z,97122.06
2019-06-10T07:35:56.621Z,97119.49
2019-06-10T07:38:25.983Z,97116.64
2019-06-10T07:40:52.997Z,97112.48
2019-06-10T07:43:19.880Z,97109.75
2019-06-10T07:45:48.129Z,97103.88
2019-06-10T07:48:15.048Z,97108.17
2019-06-10T07:50:44.268Z,97109.22
2019-06-10T07:53:12.800Z,97108.23
2019-06-10T07:55:39.611Z,97101.12
2019-06-10T07:58:06.535Z,97095.64
2019-06-10T08:00:34.970Z,97100.30
2019-06-10T08:03:02.522Z,97094.69
2019-06-10T08:05:29.405Z,97094.12
2019-06-10T08:07:56.314Z,97087.75
2019-06-10T08:10:23.327Z,97088.03
2019-06-10T08:12:52.402Z,97090.28
2019-06-10T08:15:19.300Z,97086.62
2019-06-10T08:17:46.248Z,97089.11
2019-06-10T08:20:16.288Z,97082.09
2019-06-10T08:22:50.771Z,97082.68
2019-06-10T08:25:12.501Z,97082.73
2019-06-10T08:27:41.303Z,97075.87
2019-06-10T08:30:18.575Z,97082.09
2019-06-10T08:32:37.971Z,97077.75
2019-06-10T08:35:05.393Z,97076.48
2019-06-10T08:37:33.201Z,97078.55
2019-06-10T08:40:00.182Z,97077.57
2019-06-10T08:42:27.129Z,97074.74
2019-06-10T08:44:54.039Z,97074.59
2019-06-10T08:47:22.936Z,97078.41
2019-06-10T08:49:49.627Z,97072.06
2019-06-10T08:52:16.474Z,97067.48
2019-06-10T08:54:47.972Z,97064.51
2019-06-10T08:57:12.820Z,97057.06
2019-06-10T08:59:40.765Z,97059.05
2019-06-10T09:02:08.795Z,97057.34
2019-06-10T09:04:35.641Z,97050.98
2019-06-10T09:07:04.144Z,97055.50
2019-06-10T09:09:33.531Z,97049.28
2019-06-10T09:12:00.018Z,97048.16
2019-06-10T09:14:26.893Z,97050.34
2019-06-10T09:16:54.461Z,97043.20
2019-06-10T09:19:22.206Z,97040.68
2019-06-10T09:21:52.506Z,97041.41
2019-06-10T09:24:17.941Z,97044.34
2019-06-10T09:26:48.300Z,97037.36
2019-06-10T09:29:13.724Z,97028.39
2019-06-10T09:31:45.612Z,97025.91
2019-06-10T09:34:09.284Z,97020.55
2019-06-10T09:36:36.099Z,97018.41
2019-06-10T09:39:05.564Z,97023.50
2019-06-10T09:41:40.033Z,97020.00
2019-06-10T09:44:03.208Z,97019.05
2019-06-10T09:46:33.240Z,97020.97
2019-06-10T09:49:02.230Z,97007.59
2019-06-10T09:51:29.199Z,97007.90
2019-06-10T09:54:03.598Z,97006.45
2019-06-10T09:56:25.062Z,97013.87
2019-06-10T09:58:55.109Z,97008.90
2019-06-10T10:01:20.745Z,97004.66
2019-06-10T10:03:51.935Z,97001.61
2019-06-10T10:06:16.373Z,97003.08
2019-06-10T10:08:46.076Z,96991.20
2019-06-10T10:11:12.929Z,96990.77
2019-06-10T10:13:42.467Z,96987.73
2019-06-10T10:16:08.616Z,96983.92
2019-06-10T10:18:35.496Z,96978.30
2019-06-10T10:21:03.884Z,96978.30
2019-06-10T10:23:49.056Z,96966.02
2019-06-10T10:25:59.506Z,96986.34
2019-06-10T10:28:26.640Z,96985.22
2019-06-10T10:30:57.373Z,96982.59
2019-06-10T10:33:26.828Z,96976.33
2019-06-10T10:35:52.630Z,96976.94
2019-06-10T10:38:19.561Z,96975.95
2019-06-10T10:40:49.030Z,96969.23
2019-06-10T10:43:27.475Z,96972.67
2019-06-10T10:45:47.429Z,96972.73
2019-06-10T10:48:14.089Z,96966.47
2019-06-10T10:50:41.167Z,96964.47
2019-06-10T10:53:08.003Z,96961.79
2019-06-10T10:55:34.749Z,96959.37
2019-06-10T10:58:03.140Z,96957.52
2019-06-10T11:00:41.827Z,96956.51
2019-06-10T11:03:08.834Z,96951.75
2019-06-10T11:05:36.142Z,96953.31
2019-06-10T11:08:05.284Z,96945.17
2019-06-10T11:10:32.984Z,96945.25
2019-06-10T11:13:03.973Z,96940.31
2019-06-10T11:15:33.718Z,96933.06
2019-06-10T11:18:03.694Z,96926.66
2019-06-10T11:20:30.014Z,96928.36
2019-06-10T11:22:58.033Z,96930.22
2019-06-10T11:25:25.509Z,96923.45
2019-06-10T11:27:53.078Z,96922.31
2019-06-10T11:30:21.534Z,96926.53
2019-06-10T11:32:50.666Z,96923.65
2019-06-10T11:35:18.397Z,96920.50
2019-06-10T11:37:45.426Z,96919.28
2019-06-10T11:40:13.949Z,96911.47
2019-06-10T11:42:43.562Z,96910.50
2019-06-10T11:45:10.597Z,96914.76
2019-06-10T11:47:37.697Z,96919.31
2019-06-10T11:50:06.032Z,96919.10
2019-06-10T11:52:33.639Z,96908.47
2019-06-10T11:55:11.603Z,96910.03
2019-06-10T11:57:29.343Z,96908.59
2019-06-10T11:59:57.761Z,96899.45
2019-06-10T12:02:25.215Z,96899.48
2019-06-10T12:04:53.718Z,96895.59
2019-06-10T12:07:22.371Z,96894.89
2019-06-10T12:09:50.861Z,96892.02
2019-06-10T12:12:18.241Z,96890.24
2019-06-10T12:14:45.059Z,96883.86
2019-06-10T12:17:24.531Z,96874.91
2019-06-10T12:19:43.194Z,96867.69
2019-06-10T12:22:09.596Z,96867.14
2019-06-10T12:24:36.487Z,96861.35
2019-06-10T12:27:05.092Z,96859.66
2019-06-10T12:29:32.135Z,96866.80
2019-06-10T12:32:02.822Z,96859.11
2019-06-10T12:34:27.813Z,96855.45
2019-06-10T12:36:58.329Z,96857.01
2019-06-10T12:39:23.676Z,96854.44
2019-06-10T12:41:53.198Z,96855.31
2019-06-10T12:44:19.342Z,96858.97
2019-06-10T12:46:46.174Z,96851.08
2019-06-10T12:49:16.705Z,96840.48
2019-06-10T12:51:41.839Z,96850.36
2019-06-10T12:54:08.779Z,96851.51
2019-06-10T12:56:35.716Z,96848.45
2019-06-10T12:59:09.383Z,96851.65
2019-06-10T13:01:32.979Z,96845.09
2019-06-10T13:04:04.360Z,96849.80
2019-06-10T13:06:32.469Z,96851.49
2019-06-10T13:09:03.557Z,96844.20
2019-06-10T13:11:32.694Z,96838.02
2019-06-10T13:13:59.952Z,96839.28
2019-06-10T13:16:28.242Z,96843.27
2019-06-10T13:18:55.750Z,96836.78
2019-06-10T13:21:23.091Z,96837.92
2019-06-10T13:23:50.021Z,96839.82
2019-06-10T13:26:17.911Z,96829.74
2019-06-10T13:28:45.071Z,96833.19
2019-06-10T13:31:11.900Z,96819.51
2019-06-10T13:33:38.882Z,96819.46
2019-06-10T13:36:08.309Z,96815.02
2019-06-10T13:38:34.557Z,96819.19
2019-06-10T13:41:02.318Z,96816.14
2019-06-10T13:43:33.054Z,96808.95
2019-06-10T13:45:58.557Z,96807.91
2019-06-10T13:48:26.118Z,96805.92
2019-06-10T13:50:54.056Z,96802.89
2019-06-10T13:53:20.968Z,96798.59
2019-06-10T13:55:47.785Z,96798.94
2019-06-10T13:58:14.813Z,96800.34
2019-06-10T14:00:46.248Z,96804.09
2019-06-10T14:03:15.490Z,96796.61
2019-06-10T14:05:44.361Z,96797.09
2019-06-10T14:08:09.415Z,96798.44
2019-06-10T14:10:37.203Z,96787.58
2019-06-10T14:13:06.646Z,96792.48
2019-06-10T14:15:33.086Z,96780.33
2019-06-10T14:18:01.167Z,96783.70
2019-06-10T14:20:28.868Z,96781.74
2019-06-10T14:22:55.611Z,96781.45
2019-06-10T14:25:23.299Z,96776.63
2019-06-10T14:27:53.067Z,96777.05
2019-06-10T14:30:19.949Z,96774.78
2019-06-10T14:32:46.828Z,96778.44
2019-06-10T14:35:17.204Z,96766.29
2019-06-10T14:37:43.113Z,96764.02
2019-06-10T14:40:13.502Z,96769.06
2019-06-10T14:42:39.326Z,96770.17
2019-06-10T14:45:07.167Z,96764.69
2019-06-10T14:47:34.059Z,96764.69
2019-06-10T14:50:03.232Z,96767.20
2019-06-10T14:52:32.008Z,96767.45
2019-06-10T14:54:58.403Z,96764.55
2019-06-10T14:57:25.372Z,96764.95
2019-06-10T14:59:53.214Z,96767.02
2019-06-10T15:02:20.420Z,96763.78
2019-06-10T15:04:47.261Z,96762.70
2019-06-10T15:07:15.478Z,96756.63
2019-06-10T15:09:43.143Z,96754.33
2019-06-10T15:12:10.120Z,96757.47
2019-06-10T15:14:36.955Z,96757.53
2019-06-10T15:17:03.679Z,96755.05
2019-06-10T15:19:30.419Z,96752.08
2019-06-10T15:21:57.254Z,96745.56
2019-06-10T15:24:24.316Z,96744.95
2019-06-10T15:27:08.480Z,96748.75
2019-06-10T15:29:20.149Z,96742.53
2019-06-10T15:31:47.010Z,96741.66
2019-06-10T15:34:16.646Z,96739.52
2019-06-10T15:36:43.231Z,96734.70
2019-06-10T15:39:11.727Z,96731.59
2019-06-10T15:41:39.314Z,96734.13
2019-06-10T15:44:06.221Z,96725.40
2019-06-10T15:46:32.932Z,96723.27
2019-06-10T15:49:02.196Z,96717.34
2019-06-10T15:51:28.483Z,96716.11
2019-06-10T15:53:55.333Z,96712.38
2019-06-10T15:56:31.793Z,96713.98
2019-06-10T15:58:52.157Z,96713.38
2019-06-10T16:01:22.471Z,96707.92
2019-06-10T16:03:47.684Z,96711.69
2019-06-10T16:06:14.532Z,96705.80
2019-06-10T16:08:43.130Z,96703.30
2019-06-10T16:11:10.069Z,96697.86
2019-06-10T16:13:36.804Z,96702.42
2019-06-10T16:16:03.816Z,96702.89
2019-06-10T16:18:32.945Z,96702.59
2019-06-10T16:20:59.422Z,96698.08
2019-06-10T16:23:26.906Z,96695.31
2019-06-10T16:25:53.853Z,96689.59
2019-06-10T16:28:23.413Z,96685.23
2019-06-10T16:30:49.812Z,96680.92
2019-06-10T16:33:16.758Z,96682.22
2019-06-10T16:35:43.711Z,96680.55
2019-06-10T16:38:12.574Z,96680.88
2019-06-10T16:40:39.180Z,96682.48
2019-06-10T16:43:05.995Z,96687.02
2019-06-10T16:45:34.001Z,96684.25
2019-06-10T16:48:02.401Z,96681.76
2019-06-10T16:50:29.944Z,96677.89
2019-06-10T16:52:57.098Z,96679.14
2019-06-10T16:55:25.389Z,96670.73
2019-06-10T16:57:59.294Z,96674.05
2019-06-10T17:00:23.224Z,96670.34
2019-06-10T17:02:52.971Z,96672.40
2019-06-10T17:05:21.254Z,96670.41
2019-06-10T17:07:48.911Z,96671.19
2019-06-10T17:10:17.580Z,96671.52
2019-06-10T17:12:46.426Z,96670.30
2019-06-10T17:15:13.460Z,96667.68
2019-06-10T17:17:40.520Z,96667.86
2019-06-10T17:20:07.765Z,96673.02
2019-06-10T17:22:34.582Z,96662.44
2019-06-10T17:25:04.038Z,96667.72
2019-06-10T17:27:32.692Z,96670.34
2019-06-10T17:29:59.528Z,96668.81
2019-06-10T17:32:26.846Z,96670.23
2019-06-10T17:34:55.008Z,96668.97
2019-06-10T17:37:22.341Z,96674.59
2019-06-10T17:39:49.388Z,96671.77
2019-06-10T17:42:16.384Z,96670.55
2019-06-10T17:44:43.291Z,96678.31
2019-06-10T17:47:10.088Z,96678.94
2019-06-10T17:49:36.812Z,96678.17
2019-06-10T17:52:03.733Z,96675.52
2019-06-10T17:54:30.454Z,96673.96
2019-06-10T17:56:57.437Z,96674.70
2019-06-10T17:59:25.341Z,96677.02
2019-06-10T18:01:53.310Z,96681.98
2019-06-10T18:04:22.199Z,96682.27
2019-06-10T18:06:49.036Z,96689.56
2019-06-10T18:09:15.923Z,96683.65
2019-06-10T18:11:42.980Z,96683.00
2019-06-10T18:14:12.053Z,96679.09
2019-06-10T18:16:38.622Z,96675.91
2019-06-10T18:19:05.443Z,96670.77
2019-06-10T18:21:34.402Z,96674.80
2019-06-10T18:24:07.561Z,96671.51
2019-06-10T18:26:30.893Z,96676.14
2019-06-10T18:29:05.068Z,96681.52
2019-06-10T18:31:27.659Z,96676.38
2019-06-10T18:33:54.579Z,96676.03
2019-06-10T18:36:24.143Z,96684.04
2019-06-10T18:38:52.527Z,96679.30
2019-06-10T18:41:19.045Z,96676.88
2019-06-10T18:43:45.804Z,96675.00
2019-06-10T18:46:12.865Z,96682.13
2019-06-10T18:48:40.028Z,96681.66
2019-06-10T18:51:07.096Z,96683.55
2019-06-10T18:53:36.133Z,96677.05
2019-06-10T18:56:02.620Z,96684.81
2019-06-10T18:58:30.042Z,96685.28
2019-06-10T19:01:03.899Z,96689.49
2019-06-10T19:03:26.057Z,96685.14
2019-06-10T19:05:53.224Z,96688.44
2019-06-10T19:08:22.381Z,96692.25
2019-06-10T19:10:49.136Z,96695.08
2019-06-10T19:13:16.562Z,96694.36
2019-06-10T19:15:43.696Z,96694.41
2019-06-10T19:18:13.199Z,96694.74
2019-06-10T19:20:42.771Z,96697.70
2019-06-10T19:23:07.986Z,96692.91
2019-06-10T19:25:37.281Z,96695.52
2019-06-10T19:28:03.801Z,96698.27
2019-06-10T19:30:31.839Z,96696.20
2019-06-10T19:33:02.193Z,96692.42
2019-06-10T19:35:28.421Z,96696.63
2019-06-10T19:37:55.407Z,96695.47
2019-06-10T19:40:22.792Z,96692.56
2019-06-10T19:42:49.833Z,96694.96
2019-06-10T19:45:18.765Z,96701.63
2019-06-10T19:47:45.960Z,96704.90
2019-06-10T19:50:14.067Z,96715.94
2019-06-10T19:52:43.719Z,96719.02
2019-06-10T19:55:10.280Z,96718.85
2019-06-10T19:57:37.483Z,96724.72
2019-06-10T20:00:12.504Z,96723.20
2019-06-10T20:02:39.721Z,96723.72
2019-06-10T20:05:07.645Z,96731.48
2019-06-10T20:07:35.647Z,96732.11
2019-06-10T20:10:05.600Z,96728.66
2019-06-10T20:12:32.577Z,96734.73
2019-06-10T20:14:59.427Z,96740.05
2019-06-10T20:17:26.184Z,96740.77
2019-06-10T20:19:53.135Z,96739.45
2019-06-10T20:22:20.010Z,96742.34
2019-06-10T20:24:46.962Z,96746.39
2019-06-10T20:27:14.317Z,96747.70
2019-06-10T20:29:42.991Z,96758.41
2019-06-10T20:32:10.115Z,96759.94
2019-06-10T20:34:37.141Z,96756.13
2019-06-10T20:37:04.696Z,96758.39
2019-06-10T20:39:32.977Z,96760.63
2019-06-10T20:42:02.536Z,96756.88
2019-06-10T20:44:29.147Z,96758.18
2019-06-10T20:46:55.978Z,96759.03
2019-06-10T20:49:22.773Z,96752.79
2019-06-10T20:52:06.114Z,96752.85
2019-06-10T20:54:18.275Z,96752.13
2019-06-10T20:56:48.341Z,96743.59
2019-06-10T20:59:13.867Z,96739.14
2019-06-10T21:01:43.763Z,96741.11
2019-06-10T21:04:12.970Z,96755.66
2019-06-10T21:06:41.574Z,96748.27
2019-06-10T21:09:08.944Z,96751.46
2019-06-10T21:11:36.061Z,96752.94
2019-06-10T21:14:03.402Z,96743.38
2019-06-10T21:16:32.178Z,96746.44
2019-06-10T21:18:59.312Z,96743.39
2019-06-10T21:21:26.358Z,96746.85
2019-06-10T21:23:54.067Z,96736.80
2019-06-10T21:26:23.412Z,96734.90
2019-06-10T21:28:51.293Z,96734.72
2019-06-10T21:31:18.650Z,96738.09
2019-06-10T21:33:47.719Z,96735.92
2019-06-10T21:36:14.174Z,96731.21
2019-06-10T21:38:43.868Z,96736.30
2019-06-10T21:41:09.541Z,96734.02
2019-06-10T21:43:36.294Z,96740.41
2019-06-10T21:46:03.974Z,96745.85
2019-06-10T21:48:32.398Z,96739.39
2019-06-10T21:50:59.476Z,96734.34
2019-06-10T21:53:26.420Z,96732.48
2019-06-10T21:55:55.191Z,96731.83
2019-06-10T21:58:22.498Z,96731.16
2019-06-10T22:01:04.337Z,96735.03
2019-06-10T22:03:19.415Z,96735.30
2019-06-10T22:05:47.497Z,96737.37
2019-06-10T22:08:14.510Z,96731.05
2019-06-10T22:10:42.463Z,96728.73
2019-06-10T22:13:12.135Z,96727.94
2019-06-10T22:15:38.342Z,96726.30
2019-06-10T22:18:05.285Z,96729.53
2019-06-10T22:20:32.578Z,96724.25
2019-06-10T22:22:59.538Z,96718.11
2019-06-10T22:25:26.480Z,96717.51
2019-06-10T22:27:54.144Z,96712.75
2019-06-10T22:30:22.850Z,96716.13
2019-06-10T22:32:49.828Z,96717.55
2019-06-10T22:35:23.079Z,96710.14
2019-06-10T22:37:52.204Z,96711.87
2019-06-10T22:40:18.855Z,96716.95
2019-06-10T22:42:45.708Z,96719.89
2019-06-10T22:45:13.179Z,96720.59
2019-06-10T22:47:40.063Z,96720.03
2019-06-10T22:50:08.516Z,96725.56
2019-06-10T22:52:35.265Z,96723.46
2019-06-10T22:55:06.353Z,96722.30
2019-06-10T22:57:33.170Z,96727.31
2019-06-10T23:00:00.031Z,96729.57
2019-06-10T23:02:27.097Z,96727.44
2019-06-10T23:04:57.322Z,96735.01
2019-06-10T23:07:23.105Z,96732.27
2019-06-10T23:09:51.020Z,96740.19
2019-06-10T23:12:18.869Z,96747.95
2019-06-10T23:14:45.603Z,96740.72
2019-06-10T23:17:14.205Z,96739.77
2019-06-10T23:19:42.768Z,96733.52
2019-06-10T23:22:09.735Z,96736.39
2019-06-10T23:24:36.574Z,96740.48
2019-06-10T23:27:03.646Z,96730.31
2019-06-10T23:29:32.233Z,96744.75
2019-06-10T23:32:05.878Z,96733.48
2019-06-10T23:34:28.068Z,96735.64
2019-06-10T23:36:56.644Z,96735.05
2019-06-10T23:39:23.676Z,96727.30
2019-06-10T23:41:53.206Z,96728.25
2019-06-10T23:44:19.235Z,96731.39
2019-06-10T23:46:45.949Z,96732.78
2019-06-10T23:49:12.968Z,96734.76
2019-06-10T23:51:42.179Z,96733.78
2019-06-10T23:54:08.647Z,96734.59
2019-06-10T23:56:35.823Z,96737.16
2019-06-10T23:59:04.655Z,96738.79
